createdAt,value
2024-04-18T00:00:27.024Z,57.05
2024-04-18T00:01:50.504Z,56.38
2024-04-18T00:03:10.417Z,57.52
2024-04-18T00:04:31.301Z,56.79
2024-04-18T00:05:52.079Z,57.72
2024-04-18T00:07:12.328Z,57.31
2024-04-18T00:08:33.202Z,57.52
2024-04-18T00:09:53.487Z,57.66
2024-04-18T00:11:14.429Z,56.84
2024-04-18T00:12:35.007Z,58.02
2024-04-18T00:13:56.311Z,57.32
2024-04-18T00:15:16.958Z,57.33
2024-04-18T00:16:37.147Z,57.17
2024-04-18T00:17:57.793Z,57.38
2024-04-18T00:19:18.784Z,57.25
2024-04-18T00:20:39.433Z,58.42
2024-04-18T00:22:00.037Z,57.98
2024-04-18T00:23:20.457Z,57.91
2024-04-18T00:24:40.861Z,58.18
2024-04-18T00:26:01.684Z,57.88
2024-04-18T00:27:21.610Z,57.79
2024-04-18T00:28:42.491Z,57.80
2024-04-18T00:30:03.096Z,58.35
2024-04-18T00:31:23.427Z,58.26
2024-04-18T00:32:43.482Z,58.57
2024-04-18T00:34:05.239Z,58.82
2024-04-18T00:35:26.248Z,58.87
2024-04-18T00:36:46.001Z,57.98
2024-04-18T00:38:05.982Z,58.05
2024-04-18T00:39:26.702Z,58.67
2024-04-18T00:40:48.374Z,58.93
2024-04-18T00:42:08.881Z,58.91
2024-04-18T00:43:28.962Z,58.76
2024-04-18T00:44:49.246Z,58.98
2024-04-18T00:46:10.329Z,59.27
2024-04-18T00:47:30.498Z,59.12
2024-04-18T00:48:50.587Z,59.17
2024-04-18T00:50:11.368Z,59.57
2024-04-18T00:51:31.818Z,59.51
2024-04-18T00:52:52.274Z,58.78
2024-04-18T00:54:13.291Z,59.52
2024-04-18T00:55:34.134Z,59.99
2024-04-18T00:56:54.550Z,60.06
2024-04-18T00:58:15.663Z,59.23
2024-04-18T00:59:36.617Z,59.48
2024-04-18T01:00:57.397Z,60.26
2024-04-18T01:02:17.714Z,60.17
2024-04-18T01:03:37.536Z,59.42
2024-04-18T01:04:58.432Z,60.23
2024-04-18T01:06:18.310Z,60.04
2024-04-18T01:07:38.031Z,59.74
2024-04-18T01:09:00.549Z,59.50
2024-04-18T01:10:20.848Z,59.67
2024-04-18T01:11:40.843Z,59.49
2024-04-18T01:13:01.597Z,59.35
2024-04-18T01:14:21.599Z,59.58
2024-04-18T01:15:41.982Z,60.47
2024-04-18T01:17:05.656Z,60.31
2024-04-18T01:18:25.096Z,61.96
2024-04-18T01:19:44.538Z,61.38
2024-04-18T01:21:05.287Z,61.42
2024-04-18T01:22:26.866Z,60.56
2024-04-18T01:23:47.102Z,60.91
2024-04-18T01:25:08.111Z,62.22
2024-04-18T01:26:28.417Z,61.61
2024-04-18T01:27:48.100Z,61.01
2024-04-18T01:29:08.472Z,60.90
2024-04-18T01:30:28.679Z,61.40
2024-04-18T01:31:49.418Z,61.42
2024-04-18T01:33:09.469Z,61.62
2024-04-18T01:34:29.835Z,61.58
2024-04-18T01:35:50.090Z,61.78
2024-04-18T01:37:11.913Z,61.75
2024-04-18T01:38:31.683Z,61.35
2024-04-18T01:39:51.998Z,62.27
2024-04-18T01:41:11.796Z,62.28
2024-04-18T01:42:31.657Z,61.56
2024-04-18T01:43:52.128Z,61.25
2024-04-18T01:45:12.569Z,61.42
2024-04-18T01:46:32.859Z,62.00
2024-04-18T01:47:53.362Z,61.61
2024-04-18T01:49:13.775Z,62.37
2024-04-18T01:50:34.044Z,62.38
2024-04-18T01:51:55.204Z,61.77
2024-04-18T01:53:15.707Z,61.79
2024-04-18T01:54:38.054Z,61.91
2024-04-18T01:55:58.050Z,62.22
2024-04-18T01:57:18.603Z,62.84
2024-04-18T01:58:41.534Z,62.43
2024-04-18T02:00:04.272Z,64.02
2024-04-18T02:01:25.170Z,62.58
2024-04-18T02:02:45.785Z,63.35
2024-04-18T02:04:12.404Z,63.12
2024-04-18T02:05:32.874Z,63.39
2024-04-18T02:06:53.027Z,64.19
2024-04-18T02:08:12.720Z,63.18
2024-04-18T02:09:33.369Z,63.64
2024-04-18T02:10:56.487Z,63.65
2024-04-18T02:12:16.720Z,64.48
2024-04-18T02:13:37.688Z,63.24
2024-04-18T02:14:58.363Z,64.29
2024-04-18T02:16:19.437Z,64.86
2024-04-18T02:17:39.799Z,64.78
2024-04-18T02:18:59.982Z,63.99
2024-04-18T02:20:20.561Z,63.88
2024-04-18T02:21:40.543Z,64.43
2024-04-18T02:23:00.588Z,64.13
2024-04-18T02:24:20.724Z,65.34
2024-04-18T02:25:40.187Z,65.20
2024-04-18T02:27:00.371Z,64.99
2024-04-18T02:28:20.250Z,64.96
2024-04-18T02:29:40.399Z,64.84
2024-04-18T02:31:03.698Z,64.56
2024-04-18T02:32:24.252Z,64.49
2024-04-18T02:33:44.487Z,64.87
2024-04-18T02:35:05.327Z,65.14
2024-04-18T02:36:25.142Z,65.63
2024-04-18T02:37:45.250Z,65.04
2024-04-18T02:39:04.633Z,64.65
2024-04-18T02:40:24.183Z,64.84
2024-04-18T02:41:43.854Z,64.29
2024-04-18T02:43:03.946Z,64.82
2024-04-18T02:44:23.852Z,64.16
2024-04-18T02:45:43.797Z,63.41
2024-04-18T02:47:04.290Z,63.84
2024-04-18T02:48:24.774Z,64.51
2024-04-18T02:49:45.040Z,64.21
2024-04-18T02:51:08.039Z,63.85
2024-04-18T02:52:28.154Z,63.27
2024-04-18T02:53:48.383Z,62.89
2024-04-18T02:55:08.102Z,63.08
2024-04-18T02:56:28.586Z,63.07
2024-04-18T02:57:48.571Z,63.00
2024-04-18T02:59:11.908Z,63.96
2024-04-18T03:00:31.875Z,63.23
2024-04-18T03:01:52.970Z,63.14
2024-04-18T03:03:12.517Z,62.94
2024-04-18T03:04:32.942Z,62.20
2024-04-18T03:06:02.048Z,62.68
2024-04-18T03:07:22.246Z,62.49
2024-04-18T03:08:42.543Z,61.40
2024-04-18T03:10:03.746Z,62.42
2024-04-18T03:11:25.456Z,62.65
2024-04-18T03:12:45.487Z,62.24
2024-04-18T03:14:05.349Z,61.25
2024-04-18T03:15:25.503Z,61.12
2024-04-18T03:16:45.592Z,62.08
2024-04-18T03:18:06.832Z,61.34
2024-04-18T03:19:27.204Z,60.69
2024-04-18T03:20:54.178Z,61.27
2024-04-18T03:22:14.102Z,61.56
2024-04-18T03:23:34.663Z,61.83
2024-04-18T03:24:55.302Z,61.22
2024-04-18T03:26:15.300Z,61.75
2024-04-18T03:27:35.799Z,61.19
2024-04-18T03:28:55.836Z,62.32
2024-04-18T03:30:15.959Z,62.15
2024-04-18T03:31:36.600Z,62.64
2024-04-18T03:32:57.224Z,62.61
2024-04-18T03:34:20.559Z,62.75
2024-04-18T03:35:40.549Z,61.88
2024-04-18T03:37:01.389Z,62.11
2024-04-18T03:38:21.889Z,61.92
2024-04-18T03:39:42.098Z,61.00
2024-04-18T03:41:02.373Z,61.67
2024-04-18T03:42:23.180Z,61.47
2024-04-18T03:43:43.762Z,61.76
2024-04-18T03:45:05.161Z,61.67
2024-04-18T03:46:25.704Z,60.53
2024-04-18T03:47:46.035Z,60.33
2024-04-18T03:49:10.256Z,59.92
2024-04-18T03:50:30.688Z,60.26
2024-04-18T03:51:50.785Z,59.39
2024-04-18T03:53:10.610Z,60.49
2024-04-18T03:54:31.575Z,60.73
2024-04-18T03:55:53.979Z,61.10
2024-04-18T03:57:13.995Z,60.06
2024-04-18T03:58:34.799Z,60.99
2024-04-18T03:59:55.038Z,60.51
2024-04-18T04:01:15.238Z,60.75
2024-04-18T04:02:35.655Z,60.90
2024-04-18T04:03:57.170Z,60.38
2024-04-18T04:05:17.477Z,60.66
2024-04-18T04:06:37.485Z,59.87
2024-04-18T04:08:03.468Z,60.76
2024-04-18T04:09:26.443Z,60.72
2024-04-18T04:10:47.217Z,60.96
2024-04-18T04:12:09.032Z,60.51
2024-04-18T04:13:28.792Z,60.90
2024-04-18T04:14:48.667Z,61.28
2024-04-18T04:16:08.618Z,60.92
2024-04-18T04:17:29.914Z,60.31
2024-04-18T04:18:55.200Z,60.49
2024-04-18T04:20:15.640Z,60.56
2024-04-18T04:21:36.221Z,60.22
2024-04-18T04:22:56.509Z,60.45
2024-04-18T04:24:16.853Z,60.50
2024-04-18T04:25:37.956Z,60.11
2024-04-18T04:26:57.922Z,60.52
2024-04-18T04:28:17.539Z,60.67
2024-04-18T04:29:37.803Z,59.98
2024-04-18T04:30:58.398Z,59.62
2024-04-18T04:32:23.870Z,60.11
2024-04-18T04:33:43.782Z,60.28
2024-04-18T04:35:04.308Z,59.47
2024-04-18T04:36:25.713Z,59.24
2024-04-18T04:37:46.464Z,59.19
2024-04-18T04:39:06.533Z,60.30
2024-04-18T04:40:26.609Z,60.10
2024-04-18T04:41:48.009Z,60.29
2024-04-18T04:43:08.048Z,59.94
2024-04-18T04:44:28.113Z,59.40
2024-04-18T04:45:54.270Z,59.34
2024-04-18T04:47:14.182Z,59.25
2024-04-18T04:48:35.974Z,60.10
2024-04-18T04:49:56.586Z,59.44
2024-04-18T04:51:17.662Z,60.57
2024-04-18T04:52:38.227Z,60.60
2024-04-18T04:53:58.347Z,59.96
2024-04-18T04:55:19.932Z,60.54
2024-04-18T04:56:39.691Z,60.13
2024-04-18T04:57:59.852Z,60.40
2024-04-18T04:59:19.886Z,60.10
2024-04-18T05:00:43.154Z,60.12
2024-04-18T05:02:04.547Z,59.67
2024-04-18T05:03:25.020Z,59.34
2024-04-18T05:04:44.491Z,59.23
2024-04-18T05:06:04.886Z,59.70
2024-04-18T05:07:25.676Z,59.09
2024-04-18T05:08:46.047Z,59.05
2024-04-18T05:10:07.515Z,58.48
2024-04-18T05:11:27.742Z,59.08
2024-04-18T05:12:51.209Z,58.68
2024-04-18T05:14:11.543Z,59.07
2024-04-18T05:15:31.688Z,59.35
2024-04-18T05:16:52.015Z,58.66
2024-04-18T05:18:12.558Z,58.75
2024-04-18T05:19:32.402Z,58.79
2024-04-18T05:20:52.584Z,58.84
2024-04-18T05:22:12.438Z,58.12
2024-04-18T05:23:32.906Z,58.90
2024-04-18T05:24:53.329Z,58.14
2024-04-18T05:26:14.267Z,58.92
2024-04-18T05:27:42.902Z,58.86
2024-04-18T05:29:28.809Z,58.93
2024-04-18T05:31:01.225Z,58.81
2024-04-18T05:32:21.282Z,58.12
2024-04-18T05:33:41.323Z,58.01
2024-04-18T05:35:01.407Z,58.65
2024-04-18T05:36:21.725Z,57.94
2024-04-18T05:37:41.724Z,58.13
2024-04-18T05:39:03.848Z,58.69
2024-04-18T05:40:24.364Z,58.35
2024-04-18T05:41:44.264Z,59.29
2024-04-18T05:43:05.370Z,59.02
2024-04-18T05:44:25.919Z,58.75
2024-04-18T05:45:52.950Z,58.04
2024-04-18T05:47:13.272Z,58.93
2024-04-18T05:48:34.015Z,59.07
2024-04-18T05:49:55.162Z,58.96
2024-04-18T05:51:15.676Z,59.17
2024-04-18T05:52:35.579Z,58.75
2024-04-18T05:53:56.607Z,59.08
2024-04-18T05:55:17.407Z,57.86
2024-04-18T05:56:38.374Z,58.83
2024-04-18T05:58:00.321Z,57.73
2024-04-18T05:59:33.268Z,58.77
2024-04-18T06:00:54.297Z,58.14
2024-04-18T06:02:16.954Z,58.10
2024-04-18T06:03:36.840Z,57.54
2024-04-18T06:04:58.351Z,57.86
2024-04-18T06:06:18.979Z,58.12
2024-04-18T06:07:40.193Z,57.09
2024-04-18T06:09:01.923Z,57.33
2024-04-18T06:10:23.106Z,57.60
2024-04-18T06:11:46.022Z,57.24
2024-04-18T06:13:09.198Z,57.19
2024-04-18T06:14:29.095Z,56.35
2024-04-18T06:15:49.680Z,56.30
2024-04-18T06:17:09.830Z,56.31
2024-04-18T06:18:29.827Z,56.96
2024-04-18T06:19:52.765Z,56.56
2024-04-18T06:21:13.011Z,55.95
2024-04-18T06:22:32.970Z,55.79
2024-04-18T06:23:53.289Z,54.82
2024-04-18T06:25:13.983Z,55.61
2024-04-18T06:26:34.132Z,56.00
2024-04-18T06:27:54.553Z,55.97
2024-04-18T06:29:14.654Z,55.48
2024-04-18T06:30:34.575Z,54.72
2024-04-18T06:31:54.585Z,55.70
2024-04-18T06:33:14.166Z,55.56
2024-04-18T06:34:33.951Z,55.36
2024-04-18T06:35:53.658Z,55.13
2024-04-18T06:37:13.674Z,55.37
2024-04-18T06:38:37.118Z,55.13
2024-04-18T06:39:57.560Z,55.05
2024-04-18T06:41:17.371Z,54.16
2024-04-18T06:42:37.475Z,54.74
2024-04-18T06:44:01.976Z,55.40
2024-04-18T06:45:22.309Z,54.46
2024-04-18T06:46:52.507Z,53.92
2024-04-18T06:48:17.237Z,54.18
2024-04-18T06:49:37.571Z,54.31
2024-04-18T06:50:57.470Z,54.23
2024-04-18T06:52:17.757Z,53.46
2024-04-18T06:53:37.745Z,53.68
2024-04-18T06:54:58.300Z,54.42
2024-04-18T06:56:21.083Z,53.92
2024-04-18T06:57:42.670Z,53.86
2024-04-18T06:59:06.090Z,52.33
2024-04-18T07:00:27.476Z,52.33
2024-04-18T07:01:48.470Z,52.30
2024-04-18T07:03:12.166Z,53.11
2024-04-18T07:04:32.358Z,52.11
2024-04-18T07:05:53.110Z,52.37
2024-04-18T07:07:14.900Z,52.82
2024-04-18T07:08:35.655Z,53.54
2024-04-18T07:09:56.537Z,52.61
2024-04-18T07:11:16.687Z,53.68
2024-04-18T07:12:37.522Z,52.64
2024-04-18T07:13:58.171Z,52.25
2024-04-18T07:15:18.403Z,52.65
2024-04-18T07:16:39.808Z,52.92
2024-04-18T07:17:59.864Z,52.26
2024-04-18T07:19:19.701Z,53.25
2024-04-18T07:20:40.398Z,52.23
2024-04-18T07:22:00.640Z,52.65
2024-04-18T07:23:21.516Z,52.73
2024-04-18T07:24:44.586Z,52.84
2024-04-18T07:26:06.520Z,53.04
2024-04-18T07:27:27.301Z,52.83
2024-04-18T07:28:48.432Z,53.06
2024-04-18T07:30:10.289Z,53.30
2024-04-18T07:31:31.297Z,51.98
2024-04-18T07:32:52.005Z,52.93
2024-04-18T07:34:12.442Z,52.19
2024-04-18T07:35:33.950Z,52.50
2024-04-18T07:36:54.673Z,51.75
2024-04-18T07:38:15.662Z,51.11
2024-04-18T07:39:36.079Z,51.19
2024-04-18T07:40:58.993Z,50.68
2024-04-18T07:42:20.330Z,51.48
2024-04-18T07:43:41.884Z,50.52
2024-04-18T07:45:03.422Z,51.23
2024-04-18T07:46:30.221Z,51.23
2024-04-18T07:47:50.236Z,51.55
2024-04-18T07:49:11.333Z,51.16
2024-04-18T07:50:31.846Z,50.86
2024-04-18T07:51:53.196Z,50.73
2024-04-18T07:53:13.179Z,50.22
2024-04-18T07:54:35.450Z,50.17
2024-04-18T07:55:56.099Z,50.10
2024-04-18T07:57:16.399Z,49.24
2024-04-18T07:58:40.560Z,49.21
2024-04-18T08:00:04.877Z,49.70
2024-04-18T08:01:27.104Z,49.37
2024-04-18T08:02:52.082Z,48.37
2024-04-18T08:04:34.624Z,48.75
2024-04-18T08:05:54.938Z,48.76
2024-04-18T08:07:19.814Z,49.09
2024-04-18T08:08:44.233Z,48.18
2024-04-18T08:10:09.180Z,48.22
2024-04-18T08:13:00.680Z,48.01
2024-04-18T08:14:27.614Z,47.38
2024-04-18T08:17:17.581Z,47.12
2024-04-18T08:18:37.668Z,47.31
2024-04-18T08:19:58.264Z,47.15
2024-04-18T08:21:18.818Z,47.23
2024-04-18T08:22:38.706Z,48.28
2024-04-18T08:24:01.883Z,47.31
2024-04-18T08:25:22.742Z,46.68
2024-04-18T08:26:45.371Z,46.67
2024-04-18T08:28:06.079Z,47.76
2024-04-18T08:29:27.003Z,47.25
2024-04-18T08:30:47.754Z,47.38
2024-04-18T08:32:08.022Z,47.74
2024-04-18T08:33:27.857Z,47.31
2024-04-18T08:34:49.004Z,46.88
2024-04-18T08:36:10.815Z,46.15
2024-04-18T08:37:32.776Z,45.90
2024-04-18T08:38:53.444Z,46.15
2024-04-18T08:40:13.151Z,45.18
2024-04-18T08:41:39.210Z,46.00
2024-04-18T08:43:02.335Z,47.40
2024-04-18T08:44:22.562Z,45.96
2024-04-18T08:45:46.053Z,46.74
2024-04-18T08:47:07.071Z,46.31
2024-04-18T08:48:30.065Z,45.77
2024-04-18T08:49:51.157Z,46.01
2024-04-18T08:51:13.057Z,45.85
2024-04-18T08:52:38.492Z,46.49
2024-04-18T08:53:59.561Z,46.43
2024-04-18T08:55:19.936Z,45.15
2024-04-18T08:56:47.069Z,45.36
2024-04-18T08:58:11.109Z,45.37
2024-04-18T08:59:31.977Z,46.50
2024-04-18T09:00:52.285Z,47.59
2024-04-18T09:02:13.075Z,47.74
2024-04-18T09:03:33.865Z,46.79
2024-04-18T09:04:56.397Z,46.75
2024-04-18T09:06:37.778Z,46.44
2024-04-18T09:07:58.759Z,45.92
2024-04-18T09:09:19.195Z,45.16
2024-04-18T09:10:43.113Z,45.39
2024-04-18T09:12:05.546Z,45.49
2024-04-18T09:13:27.781Z,45.97
2024-04-18T09:14:48.156Z,45.59
2024-04-18T09:16:12.996Z,45.12
2024-04-18T09:17:32.655Z,46.02
2024-04-18T09:18:53.044Z,46.19
2024-04-18T09:20:13.403Z,46.04
2024-04-18T09:21:33.966Z,45.32
2024-04-18T09:22:54.145Z,44.80
2024-04-18T09:24:14.114Z,46.00
2024-04-18T09:25:36.396Z,44.79
2024-04-18T09:27:00.089Z,45.08
2024-04-18T09:28:20.412Z,45.48
2024-04-18T09:29:41.213Z,46.21
2024-04-18T09:31:02.380Z,45.67
2024-04-18T09:32:23.660Z,45.39
2024-04-18T09:33:44.364Z,45.93
2024-04-18T09:35:05.804Z,45.63
2024-04-18T09:36:25.902Z,45.70
2024-04-18T09:37:53.463Z,45.60
2024-04-18T09:39:28.409Z,45.86
2024-04-18T09:41:04.086Z,45.79
2024-04-18T09:42:38.769Z,45.03
2024-04-18T09:44:26.310Z,45.87
2024-04-18T09:46:10.142Z,45.82
2024-04-18T09:47:32.630Z,45.53
2024-04-18T09:48:53.803Z,45.60
2024-04-18T09:50:15.544Z,44.49
2024-04-18T09:51:35.798Z,43.30
2024-04-18T09:52:56.613Z,43.51
2024-04-18T09:54:17.016Z,44.05
2024-04-18T09:55:39.423Z,45.01
2024-04-18T09:57:00.493Z,45.00
2024-04-18T09:58:23.425Z,44.52
2024-04-18T09:59:44.646Z,44.21
2024-04-18T10:01:05.668Z,44.32
2024-04-18T10:02:27.634Z,43.67
2024-04-18T10:03:48.563Z,43.79
2024-04-18T10:05:09.368Z,44.39
2024-04-18T10:06:36.823Z,44.45
2024-04-18T10:08:01.125Z,42.85
2024-04-18T10:09:24.635Z,44.05
2024-04-18T10:10:45.474Z,43.05
2024-04-18T10:12:10.382Z,43.74
2024-04-18T10:13:31.305Z,43.81
2024-04-18T10:14:51.517Z,43.12
2024-04-18T10:16:13.174Z,43.58
2024-04-18T10:17:34.068Z,42.86
2024-04-18T10:18:54.999Z,43.42
2024-04-18T10:20:16.845Z,42.74
2024-04-18T10:21:49.410Z,44.55
2024-04-18T10:23:16.358Z,43.78
2024-04-18T10:24:37.728Z,42.80
2024-04-18T10:25:59.109Z,42.46
2024-04-18T10:27:20.798Z,43.69
2024-04-18T10:28:41.781Z,43.08
2024-04-18T10:30:02.724Z,41.38
2024-04-18T10:31:28.701Z,42.29
2024-04-18T10:32:49.295Z,42.20
2024-04-18T10:34:10.734Z,42.36
2024-04-18T10:35:31.161Z,41.79
2024-04-18T10:36:54.114Z,42.92
2024-04-18T10:38:26.372Z,41.83
2024-04-18T10:39:48.356Z,41.05
2024-04-18T10:41:16.168Z,41.57
2024-04-18T10:42:38.190Z,40.94
2024-04-18T10:43:59.705Z,41.13
2024-04-18T10:45:20.492Z,40.44
2024-04-18T10:46:42.311Z,39.67
2024-04-18T10:48:03.076Z,39.42
2024-04-18T10:49:23.242Z,39.55
2024-04-18T10:50:44.605Z,40.13
2024-04-18T10:52:09.260Z,40.36
2024-04-18T10:53:36.904Z,39.08
2024-04-18T10:54:57.453Z,39.76
2024-04-18T10:56:17.780Z,40.18
2024-04-18T10:57:38.099Z,39.41
2024-04-18T10:58:58.316Z,38.33
2024-04-18T11:00:19.091Z,39.11
2024-04-18T11:01:40.346Z,37.40
2024-04-18T11:03:00.313Z,37.84
2024-04-18T11:04:20.635Z,37.72
2024-04-18T11:05:42.508Z,37.45
2024-04-18T11:07:02.745Z,38.12
2024-04-18T11:08:24.894Z,37.44
2024-04-18T11:09:45.763Z,36.08
2024-04-18T11:11:06.211Z,37.10
2024-04-18T11:12:26.210Z,36.47
2024-04-18T11:13:49.670Z,36.89
2024-04-18T11:15:09.787Z,37.09
2024-04-18T11:16:30.601Z,36.35
2024-04-18T11:17:52.416Z,36.79
2024-04-18T11:19:12.522Z,36.03
2024-04-18T11:20:34.244Z,36.33
2024-04-18T11:21:54.320Z,36.32
2024-04-18T11:23:15.883Z,36.48
2024-04-18T11:24:36.346Z,36.96
2024-04-18T11:25:57.534Z,36.34
2024-04-18T11:27:16.769Z,37.55
2024-04-18T11:28:37.161Z,37.50
2024-04-18T11:29:57.032Z,37.14
2024-04-18T11:31:17.766Z,37.98
2024-04-18T11:32:38.125Z,38.09
2024-04-18T11:33:58.047Z,38.16
2024-04-18T11:35:19.555Z,37.52
2024-04-18T11:36:39.355Z,37.11
2024-04-18T11:38:02.451Z,36.72
2024-04-18T11:39:22.715Z,36.67
2024-04-18T11:40:43.220Z,36.18
2024-04-18T11:42:03.982Z,36.31
2024-04-18T11:43:24.636Z,36.42
2024-04-18T11:44:45.373Z,37.35
2024-04-18T11:46:05.982Z,35.98
2024-04-18T11:47:26.024Z,37.27
2024-04-18T11:48:46.708Z,36.69
2024-04-18T11:50:07.184Z,36.36
2024-04-18T11:51:27.275Z,36.24
2024-04-18T11:52:47.259Z,37.02
2024-04-18T11:54:07.064Z,35.97
2024-04-18T11:55:28.531Z,36.36
2024-04-18T11:56:50.180Z,35.42
2024-04-18T11:58:09.896Z,35.73
2024-04-18T11:59:30.288Z,35.00
2024-04-18T12:00:50.470Z,34.94
2024-04-18T12:02:10.858Z,34.12
2024-04-18T12:03:34.847Z,34.19
2024-04-18T12:04:55.180Z,33.59
2024-04-18T12:06:16.202Z,33.13
2024-04-18T12:07:36.596Z,33.66
2024-04-18T12:08:57.245Z,32.37
2024-04-18T12:10:18.034Z,32.43
2024-04-18T12:11:38.663Z,32.53
2024-04-18T12:12:59.778Z,32.78
2024-04-18T12:14:20.359Z,32.41
2024-04-18T12:15:41.012Z,32.64
2024-04-18T12:17:01.400Z,32.22
2024-04-18T12:18:22.445Z,31.93
2024-04-18T12:19:44.877Z,30.95
2024-04-18T12:21:05.473Z,30.58
2024-04-18T12:22:28.770Z,30.14
2024-04-18T12:23:48.395Z,29.84
2024-04-18T12:25:08.134Z,29.40
2024-04-18T12:26:29.172Z,28.69
2024-04-18T12:27:49.839Z,29.22
2024-04-18T12:29:10.282Z,28.40
2024-04-18T12:30:31.078Z,28.94
2024-04-18T12:31:52.647Z,30.55
2024-04-18T12:33:13.480Z,29.88
2024-04-18T12:34:34.259Z,30.71
2024-04-18T12:35:54.832Z,30.84
2024-04-18T12:37:15.107Z,31.43
2024-04-18T12:38:34.595Z,31.19
2024-04-18T12:39:54.772Z,31.58
2024-04-18T12:41:16.688Z,31.67
2024-04-18T12:42:36.966Z,32.92
2024-04-18T12:43:57.529Z,32.86
2024-04-18T12:45:17.735Z,33.28
2024-04-18T12:46:38.545Z,33.80
2024-04-18T12:48:01.938Z,33.19
2024-04-18T12:49:22.422Z,33.99
2024-04-18T12:50:42.910Z,33.46
2024-04-18T12:52:03.195Z,33.42
2024-04-18T12:53:25.131Z,34.47
2024-04-18T12:54:46.976Z,34.18
2024-04-18T12:56:07.113Z,34.57
2024-04-18T12:57:27.073Z,35.51
2024-04-18T12:58:47.668Z,34.99
2024-04-18T13:00:08.426Z,35.16
2024-04-18T13:01:28.765Z,35.71
2024-04-18T13:02:49.088Z,35.29
2024-04-18T13:04:09.842Z,35.75
2024-04-18T13:05:31.052Z,36.15
2024-04-18T13:06:51.681Z,36.07
2024-04-18T13:08:12.443Z,35.06
2024-04-18T13:09:33.660Z,35.80
2024-04-18T13:10:53.973Z,35.40
2024-04-18T13:12:14.167Z,34.61
2024-04-18T13:13:34.458Z,35.30
2024-04-18T13:14:55.349Z,35.25
2024-04-18T13:16:16.257Z,34.32
2024-04-18T13:17:36.494Z,33.73
2024-04-18T13:18:56.834Z,34.22
2024-04-18T13:20:16.766Z,33.82
2024-04-18T13:21:37.029Z,33.13
2024-04-18T13:22:56.804Z,34.35
2024-04-18T13:24:18.892Z,32.99
2024-04-18T13:25:38.862Z,33.05
2024-04-18T13:26:58.781Z,33.09
2024-04-18T13:28:18.410Z,34.13
2024-04-18T13:29:38.717Z,34.05
2024-04-18T13:30:58.948Z,33.48
2024-04-18T13:32:19.270Z,34.01
2024-04-18T13:33:40.413Z,34.24
2024-04-18T13:35:00.654Z,34.50
2024-04-18T13:36:22.436Z,34.20
2024-04-18T13:37:43.516Z,33.91
2024-04-18T13:39:04.014Z,33.50
2024-04-18T13:40:24.587Z,32.97
2024-04-18T13:41:45.411Z,33.58
2024-04-18T13:43:05.916Z,32.17
2024-04-18T13:44:25.717Z,30.62
2024-04-18T13:45:46.083Z,30.30
2024-04-18T13:47:06.270Z,31.02
2024-04-18T13:48:26.077Z,29.45
2024-04-18T13:49:48.508Z,28.62
2024-04-18T13:51:10.474Z,28.70
2024-04-18T13:52:31.068Z,29.24
2024-04-18T13:53:51.104Z,29.94
2024-04-18T13:55:11.017Z,30.13
2024-04-18T13:56:32.106Z,29.06
2024-04-18T13:57:52.251Z,28.30
2024-04-18T13:59:12.988Z,28.04
2024-04-18T14:00:33.124Z,26.93
2024-04-18T14:01:53.820Z,26.53
2024-04-18T14:03:16.222Z,26.55
2024-04-18T14:04:38.166Z,25.73
2024-04-18T14:05:58.326Z,26.64
2024-04-18T14:07:18.617Z,26.18
2024-04-18T14:08:42.795Z,25.95
2024-04-18T14:10:04.398Z,24.77
2024-04-18T14:11:26.425Z,24.99
2024-04-18T14:12:46.348Z,25.10
2024-04-18T14:14:08.884Z,26.66
2024-04-18T14:15:36.007Z,26.33
2024-04-18T14:17:15.556Z,27.00
2024-04-18T14:18:52.044Z,27.55
2024-04-18T14:20:13.118Z,27.11
2024-04-18T14:21:33.303Z,25.56
2024-04-18T14:22:53.987Z,24.95
2024-04-18T14:24:15.067Z,24.33
2024-04-18T14:25:35.876Z,24.23
2024-04-18T14:26:56.335Z,24.37
2024-04-18T14:28:24.049Z,23.02
2024-04-18T14:29:51.640Z,22.71
2024-04-18T14:31:14.113Z,23.45
2024-04-18T14:32:34.605Z,24.02
2024-04-18T14:33:55.992Z,23.31
2024-04-18T14:35:17.110Z,23.10
2024-04-18T14:36:38.445Z,23.03
2024-04-18T14:38:01.872Z,23.33
2024-04-18T14:39:22.109Z,23.63
2024-04-18T14:40:49.847Z,22.84
2024-04-18T14:42:14.061Z,23.77
2024-04-18T14:43:35.051Z,24.17
2024-04-18T14:44:55.918Z,25.28
2024-04-18T14:46:17.427Z,24.44
2024-04-18T14:47:37.806Z,23.91
2024-04-18T14:49:03.488Z,23.53
2024-04-18T14:50:25.081Z,23.40
2024-04-18T14:51:45.459Z,22.93
2024-04-18T14:53:05.714Z,22.57
2024-04-18T14:54:25.248Z,22.33
2024-04-18T14:55:45.873Z,22.63
2024-04-18T14:57:07.413Z,22.00
2024-04-18T14:58:28.488Z,21.86
2024-04-18T14:59:51.796Z,22.79
2024-04-18T15:01:15.757Z,23.29
2024-04-18T15:02:37.277Z,24.04
2024-04-18T15:03:56.816Z,23.96
2024-04-18T15:05:19.162Z,24.91
2024-04-18T15:06:39.889Z,24.73
2024-04-18T15:08:01.008Z,25.06
2024-04-18T15:09:22.349Z,25.09
2024-04-18T15:10:43.037Z,24.83
2024-04-18T15:12:03.387Z,25.46
2024-04-18T15:13:24.375Z,24.96
2024-04-18T15:14:44.909Z,25.08
2024-04-18T15:16:07.737Z,24.77
2024-04-18T15:17:28.671Z,25.08
2024-04-18T15:18:49.628Z,24.12
2024-04-18T15:20:10.367Z,24.25
2024-04-18T15:21:32.006Z,24.07
2024-04-18T15:22:54.385Z,23.77
2024-04-18T15:24:15.723Z,24.45
2024-04-18T15:25:36.872Z,25.01
2024-04-18T15:26:59.690Z,25.48
2024-04-18T15:28:21.092Z,24.70
2024-04-18T15:29:41.725Z,23.98
2024-04-18T15:31:02.329Z,23.44
2024-04-18T15:32:23.526Z,23.10
2024-04-18T15:33:43.720Z,23.54
2024-04-18T15:35:04.024Z,23.09
2024-04-18T15:36:24.085Z,23.13
2024-04-18T15:37:44.300Z,23.02
2024-04-18T15:39:04.636Z,22.26
2024-04-18T15:40:24.962Z,21.42
2024-04-18T15:41:45.956Z,20.68
2024-04-18T15:43:06.811Z,21.65
2024-04-18T15:44:26.989Z,21.81
2024-04-18T15:45:46.853Z,22.16
2024-04-18T15:47:07.879Z,21.22
2024-04-18T15:48:28.362Z,21.20
2024-04-18T15:49:49.045Z,20.76
2024-04-18T15:51:11.986Z,20.85
2024-04-18T15:52:33.296Z,20.63
2024-04-18T15:53:53.414Z,20.30
2024-04-18T15:55:20.184Z,20.24
2024-04-18T15:56:42.705Z,19.91
2024-04-18T15:58:03.328Z,20.38
2024-04-18T15:59:23.486Z,20.13
2024-04-18T16:00:44.560Z,19.45
2024-04-18T16:02:08.643Z,19.68
2024-04-18T16:03:29.725Z,20.30
2024-04-18T16:04:52.337Z,20.10
2024-04-18T16:06:13.385Z,19.77
2024-04-18T16:07:34.067Z,19.68
2024-04-18T16:08:54.487Z,20.99
2024-04-18T16:10:14.703Z,20.82
2024-04-18T16:11:35.350Z,20.59
2024-04-18T16:12:55.994Z,20.56
2024-04-18T16:14:16.170Z,20.56
2024-04-18T16:15:36.746Z,21.63
2024-04-18T16:16:57.469Z,22.60
2024-04-18T16:18:17.624Z,22.85
2024-04-18T16:19:39.220Z,23.40
2024-04-18T16:21:03.625Z,24.38
2024-04-18T16:22:25.369Z,25.04
2024-04-18T16:23:45.334Z,25.21
2024-04-18T16:25:05.755Z,24.68
2024-04-18T16:26:26.793Z,25.35
2024-04-18T16:27:46.858Z,25.97
2024-04-18T16:29:07.317Z,25.25
2024-04-18T16:30:30.683Z,26.30
2024-04-18T16:31:51.106Z,25.54
2024-04-18T16:33:12.727Z,26.61
2024-04-18T16:34:34.355Z,26.40
2024-04-18T16:35:54.729Z,26.23
2024-04-18T16:37:17.453Z,25.47
2024-04-18T16:38:39.934Z,25.47
2024-04-18T16:40:00.902Z,25.14
2024-04-18T16:41:21.528Z,25.15
2024-04-18T16:42:42.114Z,25.28
2024-04-18T16:44:01.749Z,25.54
2024-04-18T16:45:22.429Z,26.14
2024-04-18T16:46:43.512Z,25.79
2024-04-18T16:48:03.684Z,26.30
2024-04-18T16:49:24.626Z,26.84
2024-04-18T16:50:45.373Z,27.49
2024-04-18T16:52:06.991Z,27.55
2024-04-18T16:53:29.269Z,28.83
2024-04-18T16:54:50.342Z,27.74
2024-04-18T16:56:10.491Z,28.27
2024-04-18T16:57:32.031Z,27.97
2024-04-18T16:58:53.211Z,28.30
2024-04-18T17:00:13.223Z,28.83
2024-04-18T17:01:34.023Z,30.14
2024-04-18T17:02:54.197Z,29.45
2024-04-18T17:04:14.441Z,29.78
2024-04-18T17:05:35.055Z,30.31
2024-04-18T17:06:55.080Z,30.87
2024-04-18T17:08:16.469Z,31.15
2024-04-18T17:09:37.694Z,31.39
2024-04-18T17:10:57.687Z,32.01
2024-04-18T17:12:17.904Z,32.29
2024-04-18T17:13:39.378Z,32.00
2024-04-18T17:15:00.352Z,33.10
2024-04-18T17:16:22.138Z,33.44
2024-04-18T17:17:46.084Z,33.15
2024-04-18T17:19:08.311Z,33.94
2024-04-18T17:20:36.614Z,33.41
2024-04-18T17:22:03.550Z,32.97
2024-04-18T17:24:01.707Z,33.44
2024-04-18T17:25:23.839Z,34.32
2024-04-18T17:26:55.692Z,33.95
2024-04-18T17:28:16.336Z,35.21
2024-04-18T17:29:37.900Z,35.36
2024-04-18T17:31:20.037Z,36.14
2024-04-18T17:32:48.878Z,36.60